sensor_id;sensor_type;location;lat;lon;timestamp;temperature;humidity
55083;DHT22;40978;52.850;6.506;2023-09-19T00:01:12;13.80;99.90
55083;DHT22;40978;52.850;6.506;2023-09-19T00:03:39;13.70;99.90
55083;DHT22;40978;52.850;6.506;2023-09-19T00:06:08;13.60;99.90
55083;DHT22;40978;52.850;6.506;2023-09-19T00:08:34;13.60;99.90
55083;DHT22;40978;52.850;6.506;2023-09-19T00:11:00;13.50;99.90
55083;DHT22;40978;52.850;6.506;2023-09-19T00:13:34;13.40;99.90
55083;DHT22;40978;52.850;6.506;2023-09-19T00:16:01;13.40;99.90
55083;DHT22;40978;52.850;6.506;2023-09-19T00:18:33;13.30;99.90
55083;DHT22;40978;52.850;6.506;2023-09-19T00:21:00;13.30;99.90
55083;DHT22;40978;52.850;6.506;2023-09-19T00:23:26;13.20;99.90
55083;DHT22;40978;52.850;6.506;2023-09-19T00:25:52;13.10;99.90
55083;DHT22;40978;52.850;6.506;2023-09-19T00:28:23;13.10;99.90
55083;DHT22;40978;52.850;6.506;2023-09-19T00:30:48;13.10;99.90
55083;DHT22;40978;52.850;6.506;2023-09-19T00:33:18;13.00;99.90
55083;DHT22;40978;52.850;6.506;2023-09-19T00:35:51;12.90;99.90
55083;DHT22;40978;52.850;6.506;2023-09-19T00:38:17;12.90;99.90
55083;DHT22;40978;52.850;6.506;2023-09-19T00:40:47;12.90;99.90
55083;DHT22;40978;52.850;6.506;2023-09-19T00:43:13;12.90;99.90
55083;DHT22;40978;52.850;6.506;2023-09-19T00:45:43;12.90;99.90
55083;DHT22;40978;52.850;6.506;2023-09-19T00:48:09;12.80;99.90
55083;DHT22;40978;52.850;6.506;2023-09-19T00:50:36;12.80;99.90
55083;DHT22;40978;52.850;6.506;2023-09-19T00:53:02;12.80;99.90
55083;DHT22;40978;52.850;6.506;2023-09-19T00:55:34;12.80;99.90
55083;DHT22;40978;52.850;6.506;2023-09-19T00:58:00;12.80;99.90
55083;DHT22;40978;52.850;6.506;2023-09-19T01:00:26;12.80;99.90
55083;DHT22;40978;52.850;6.506;2023-09-19T01:02:52;12.70;99.90
55083;DHT22;40978;52.850;6.506;2023-09-19T01:05:19;12.80;99.90
55083;DHT22;40978;52.850;6.506;2023-09-19T01:07:45;12.70;99.90
55083;DHT22;40978;52.850;6.506;2023-09-19T01:10:12;12.70;99.90
55083;DHT22;40978;52.850;6.506;2023-09-19T01:12:45;12.80;99.90
55083;DHT22;40978;52.850;6.506;2023-09-19T01:31:24;12.70;99.90
55083;DHT22;40978;52.850;6.506;2023-09-19T01:33:59;12.60;99.90
55083;DHT22;40978;52.850;6.506;2023-09-19T01:36:28;12.60;99.90
55083;DHT22;40978;52.850;6.506;2023-09-19T01:38:55;12.60;99.90
55083;DHT22;40978;52.850;6.506;2023-09-19T01:44:15;12.50;99.90
55083;DHT22;40978;52.850;6.506;2023-09-19T01:46:44;12.50;99.90
55083;DHT22;40978;52.850;6.506;2023-09-19T01:49:33;12.50;99.90
55083;DHT22;40978;52.850;6.506;2023-09-19T01:52:02;12.40;99.90
55083;DHT22;40978;52.850;6.506;2023-09-19T01:54:34;12.40;99.90
55083;DHT22;40978;52.850;6.506;2023-09-19T01:57:27;12.40;99.90
55083;DHT22;40978;52.850;6.506;2023-09-19T02:00:06;12.30;99.90
55083;DHT22;40978;52.850;6.506;2023-09-19T02:02:52;12.30;99.90
55083;DHT22;40978;52.850;6.506;2023-09-19T02:05:24;12.30;99.90
55083;DHT22;40978;52.850;6.506;2023-09-19T02:07:51;12.30;99.90
55083;DHT22;40978;52.850;6.506;2023-09-19T02:10:18;12.20;99.90
55083;DHT22;40978;52.850;6.506;2023-09-19T02:12:44;12.20;99.90
55083;DHT22;40978;52.850;6.506;2023-09-19T02:15:10;12.20;99.90
55083;DHT22;40978;52.850;6.506;2023-09-19T02:17:36;12.20;99.90
55083;DHT22;40978;52.850;6.506;2023-09-19T02:20:03;12.20;99.90
55083;DHT22;40978;52.850;6.506;2023-09-19T02:22:36;12.10;99.90
55083;DHT22;40978;52.850;6.506;2023-09-19T02:25:02;12.10;99.90
55083;DHT22;40978;52.850;6.506;2023-09-19T02:27:30;12.10;99.90
55083;DHT22;40978;52.850;6.506;2023-09-19T02:29:56;12.10;99.90
55083;DHT22;40978;52.850;6.506;2023-09-19T02:32:23;12.10;99.90
55083;DHT22;40978;52.850;6.506;2023-09-19T02:34:48;12.10;99.90
55083;DHT22;40978;52.850;6.506;2023-09-19T02:37:17;12.10;99.90
55083;DHT22;40978;52.850;6.506;2023-09-19T02:39:45;12.10;99.90
55083;DHT22;40978;52.850;6.506;2023-09-19T02:42:10;12.10;99.90
55083;DHT22;40978;52.850;6.506;2023-09-19T02:44:36;12.10;99.90
55083;DHT22;40978;52.850;6.506;2023-09-19T02:47:04;12.10;99.90
55083;DHT22;40978;52.850;6.506;2023-09-19T02:49:29;12.00;99.90
55083;DHT22;40978;52.850;6.506;2023-09-19T02:51:56;12.00;99.90
55083;DHT22;40978;52.850;6.506;2023-09-19T02:54:24;12.00;99.90
55083;DHT22;40978;52.850;6.506;2023-09-19T02:56:50;12.00;99.90
55083;DHT22;40978;52.850;6.506;2023-09-19T02:59:15;12.00;99.90
55083;DHT22;40978;52.850;6.506;2023-09-19T03:01:43;12.00;99.90
55083;DHT22;40978;52.850;6.506;2023-09-19T03:04:09;12.00;99.90
55083;DHT22;40978;52.850;6.506;2023-09-19T03:06:37;12.00;99.90
55083;DHT22;40978;52.850;6.506;2023-09-19T03:09:04;12.00;99.90
55083;DHT22;40978;52.850;6.506;2023-09-19T03:11:39;12.00;99.90
55083;DHT22;40978;52.850;6.506;2023-09-19T03:14:05;12.00;99.90
55083;DHT22;40978;52.850;6.506;2023-09-19T03:16:31;12.10;99.90
55083;DHT22;40978;52.850;6.506;2023-09-19T03:18:57;12.10;99.90
55083;DHT22;40978;52.850;6.506;2023-09-19T03:21:25;12.10;99.90
55083;DHT22;40978;52.850;6.506;2023-09-19T03:23:51;12.00;99.90
55083;DHT22;40978;52.850;6.506;2023-09-19T03:26:16;12.10;99.90
55083;DHT22;40978;52.850;6.506;2023-09-19T03:28:43;12.00;99.90
55083;DHT22;40978;52.850;6.506;2023-09-19T03:31:10;12.10;99.90
55083;DHT22;40978;52.850;6.506;2023-09-19T03:33:36;12.10;99.90
55083;DHT22;40978;52.850;6.506;2023-09-19T03:39:44;12.10;99.90
55083;DHT22;40978;52.850;6.506;2023-09-19T03:42:09;12.10;99.90
55083;DHT22;40978;52.850;6.506;2023-09-19T03:44:35;12.10;99.90
55083;DHT22;40978;52.850;6.506;2023-09-19T03:47:01;12.10;99.90
55083;DHT22;40978;52.850;6.506;2023-09-19T03:49:26;12.10;99.90
55083;DHT22;40978;52.850;6.506;2023-09-19T03:51:52;12.10;99.90
55083;DHT22;40978;52.850;6.506;2023-09-19T03:54:18;12.10;99.90
55083;DHT22;40978;52.850;6.506;2023-09-19T03:56:45;12.00;99.90
55083;DHT22;40978;52.850;6.506;2023-09-19T03:59:11;12.10;99.90
55083;DHT22;40978;52.850;6.506;2023-09-19T04:01:37;12.00;99.90
55083;DHT22;40978;52.850;6.506;2023-09-19T04:04:03;12.00;99.90
55083;DHT22;40978;52.850;6.506;2023-09-19T04:06:35;12.10;99.90
55083;DHT22;40978;52.850;6.506;2023-09-19T04:09:03;12.00;99.90
55083;DHT22;40978;52.850;6.506;2023-09-19T04:11:33;12.10;99.90
55083;DHT22;40978;52.850;6.506;2023-09-19T04:13:59;12.20;99.90
55083;DHT22;40978;52.850;6.506;2023-09-19T04:16:25;12.20;99.90
55083;DHT22;40978;52.850;6.506;2023-09-19T04:18:51;12.20;99.90
55083;DHT22;40978;52.850;6.506;2023-09-19T04:21:16;12.20;99.90
55083;DHT22;40978;52.850;6.506;2023-09-19T04:23:42;12.20;99.90
55083;DHT22;40978;52.850;6.506;2023-09-19T04:26:08;12.20;99.90
55083;DHT22;40978;52.850;6.506;2023-09-19T04:28:34;12.30;99.90
55083;DHT22;40978;52.850;6.506;2023-09-19T04:31:03;12.30;99.90
55083;DHT22;40978;52.850;6.506;2023-09-19T04:33:29;12.30;99.90
55083;DHT22;40978;52.850;6.506;2023-09-19T04:35:55;12.40;99.90
55083;DHT22;40978;52.850;6.506;2023-09-19T04:38:21;12.50;99.90
55083;DHT22;40978;52.850;6.506;2023-09-19T04:40:47;12.50;99.90
55083;DHT22;40978;52.850;6.506;2023-09-19T04:43:13;12.60;99.90
55083;DHT22;40978;52.850;6.506;2023-09-19T04:45:39;12.60;99.90
55083;DHT22;40978;52.850;6.506;2023-09-19T04:48:07;12.70;99.90
55083;DHT22;40978;52.850;6.506;2023-09-19T04:50:36;12.80;99.90
55083;DHT22;40978;52.850;6.506;2023-09-19T04:53:02;12.80;99.90
55083;DHT22;40978;52.850;6.506;2023-09-19T04:55:28;12.80;99.90
55083;DHT22;40978;52.850;6.506;2023-09-19T04:57:55;12.90;99.90
55083;DHT22;40978;52.850;6.506;2023-09-19T05:00:22;12.90;99.90
55083;DHT22;40978;52.850;6.506;2023-09-19T05:02:56;12.90;99.90
55083;DHT22;40978;52.850;6.506;2023-09-19T05:05:22;13.00;99.90
55083;DHT22;40978;52.850;6.506;2023-09-19T05:07:49;13.00;99.90
55083;DHT22;40978;52.850;6.506;2023-09-19T05:10:15;13.00;99.90
55083;DHT22;40978;52.850;6.506;2023-09-19T05:12:44;13.10;99.90
55083;DHT22;40978;52.850;6.506;2023-09-19T05:15:14;13.10;99.90
55083;DHT22;40978;52.850;6.506;2023-09-19T05:17:40;13.10;99.90
55083;DHT22;40978;52.850;6.506;2023-09-19T05:20:07;13.00;99.90
55083;DHT22;40978;52.850;6.506;2023-09-19T05:23:05;13.00;99.90
55083;DHT22;40978;52.850;6.506;2023-09-19T05:25:35;13.00;99.90
55083;DHT22;40978;52.850;6.506;2023-09-19T05:28:08;12.90;99.90
55083;DHT22;40978;52.850;6.506;2023-09-19T05:30:34;12.90;99.90
55083;DHT22;40978;52.850;6.506;2023-09-19T05:33:02;12.90;99.90
55083;DHT22;40978;52.850;6.506;2023-09-19T05:35:30;12.90;99.90
55083;DHT22;40978;52.850;6.506;2023-09-19T05:37:56;12.90;99.90
55083;DHT22;40978;52.850;6.506;2023-09-19T05:40:24;12.90;99.90
55083;DHT22;40978;52.850;6.506;2023-09-19T05:42:50;12.80;99.90
55083;DHT22;40978;52.850;6.506;2023-09-19T05:45:17;12.80;99.90
55083;DHT22;40978;52.850;6.506;2023-09-19T05:47:51;12.80;99.90
55083;DHT22;40978;52.850;6.506;2023-09-19T05:50:18;12.70;99.90
55083;DHT22;40978;52.850;6.506;2023-09-19T05:52:52;12.70;99.90
55083;DHT22;40978;52.850;6.506;2023-09-19T05:55:18;12.70;99.90
55083;DHT22;40978;52.850;6.506;2023-09-19T05:57:49;12.60;99.90
55083;DHT22;40978;52.850;6.506;2023-09-19T06:00:15;12.50;99.90
55083;DHT22;40978;52.850;6.506;2023-09-19T06:02:43;12.60;99.90
55083;DHT22;40978;52.850;6.506;2023-09-19T06:05:18;12.60;99.90
55083;DHT22;40978;52.850;6.506;2023-09-19T06:07:45;12.60;99.90
55083;DHT22;40978;52.850;6.506;2023-09-19T06:10:11;12.60;99.90
55083;DHT22;40978;52.850;6.506;2023-09-19T06:12:40;12.60;99.90
55083;DHT22;40978;52.850;6.506;2023-09-19T06:15:09;12.70;99.90
55083;DHT22;40978;52.850;6.506;2023-09-19T06:17:48;12.80;99.90
55083;DHT22;40978;52.850;6.506;2023-09-19T06:20:15;12.80;99.90
55083;DHT22;40978;52.850;6.506;2023-09-19T06:22:44;12.90;99.90
55083;DHT22;40978;52.850;6.506;2023-09-19T06:25:13;12.90;99.90
55083;DHT22;40978;52.850;6.506;2023-09-19T06:27:48;13.00;99.90
55083;DHT22;40978;52.850;6.506;2023-09-19T06:30:18;13.10;99.90
55083;DHT22;40978;52.850;6.506;2023-09-19T06:32:44;13.10;99.90
55083;DHT22;40978;52.850;6.506;2023-09-19T06:35:14;13.20;99.90
55083;DHT22;40978;52.850;6.506;2023-09-19T06:37:41;13.10;99.90
55083;DHT22;40978;52.850;6.506;2023-09-19T06:40:13;13.10;99.90
55083;DHT22;40978;52.850;6.506;2023-09-19T06:42:47;13.00;99.90
55083;DHT22;40978;52.850;6.506;2023-09-19T06:45:16;13.00;99.90
55083;DHT22;40978;52.850;6.506;2023-09-19T06:47:45;12.90;99.90
55083;DHT22;40978;52.850;6.506;2023-09-19T06:50:11;12.90;99.90
55083;DHT22;40978;52.850;6.506;2023-09-19T06:52:43;12.90;99.90
55083;DHT22;40978;52.850;6.506;2023-09-19T06:55:09;13.00;99.90
55083;DHT22;40978;52.850;6.506;2023-09-19T06:57:37;13.00;99.90
55083;DHT22;40978;52.850;6.506;2023-09-19T07:00:03;13.00;99.90
55083;DHT22;40978;52.850;6.506;2023-09-19T07:02:35;13.10;99.90
55083;DHT22;40978;52.850;6.506;2023-09-19T07:05:00;13.30;99.90
55083;DHT22;40978;52.850;6.506;2023-09-19T07:07:26;13.40;99.90
55083;DHT22;40978;52.850;6.506;2023-09-19T07:09:52;13.60;99.90
55083;DHT22;40978;52.850;6.506;2023-09-19T07:12:19;13.80;99.90
55083;DHT22;40978;52.850;6.506;2023-09-19T07:14:45;14.00;99.90
55083;DHT22;40978;52.850;6.506;2023-09-19T07:17:10;14.20;99.90
55083;DHT22;40978;52.850;6.506;2023-09-19T07:19:37;14.20;99.90
55083;DHT22;40978;52.850;6.506;2023-09-19T07:22:02;14.30;99.90
55083;DHT22;40978;52.850;6.506;2023-09-19T07:24:28;14.40;99.90
55083;DHT22;40978;52.850;6.506;2023-09-19T07:26:54;14.40;99.90
55083;DHT22;40978;52.850;6.506;2023-09-19T07:29:20;14.30;99.90
55083;DHT22;40978;52.850;6.506;2023-09-19T07:31:46;14.30;99.90
55083;DHT22;40978;52.850;6.506;2023-09-19T07:34:11;14.30;99.90
55083;DHT22;40978;52.850;6.506;2023-09-19T07:36:37;14.20;99.90
55083;DHT22;40978;52.850;6.506;2023-09-19T07:39:04;14.20;99.90
55083;DHT22;40978;52.850;6.506;2023-09-19T07:41:33;14.10;99.90
55083;DHT22;40978;52.850;6.506;2023-09-19T07:43:58;14.10;99.90
55083;DHT22;40978;52.850;6.506;2023-09-19T07:46:24;14.10;99.90
55083;DHT22;40978;52.850;6.506;2023-09-19T07:48:51;14.00;99.90
55083;DHT22;40978;52.850;6.506;2023-09-19T07:51:17;14.00;99.90
55083;DHT22;40978;52.850;6.506;2023-09-19T07:53:43;14.10;99.90
55083;DHT22;40978;52.850;6.506;2023-09-19T07:56:09;14.20;99.90
55083;DHT22;40978;52.850;6.506;2023-09-19T07:58:38;14.40;99.90
55083;DHT22;40978;52.850;6.506;2023-09-19T08:01:05;14.50;99.90
55083;DHT22;40978;52.850;6.506;2023-09-19T08:03:32;14.70;99.90
55083;DHT22;40978;52.850;6.506;2023-09-19T08:05:59;14.70;99.90
55083;DHT22;40978;52.850;6.506;2023-09-19T08:08:25;14.80;99.90
55083;DHT22;40978;52.850;6.506;2023-09-19T08:10:55;14.70;99.90
55083;DHT22;40978;52.850;6.506;2023-09-19T08:13:23;14.60;99.90
55083;DHT22;40978;52.850;6.506;2023-09-19T08:15:49;14.80;99.90
55083;DHT22;40978;52.850;6.506;2023-09-19T08:18:16;14.90;99.90
55083;DHT22;40978;52.850;6.506;2023-09-19T08:20:43;15.00;99.90
55083;DHT22;40978;52.850;6.506;2023-09-19T08:23:11;15.30;99.90
55083;DHT22;40978;52.850;6.506;2023-09-19T08:25:37;15.60;99.90
55083;DHT22;40978;52.850;6.506;2023-09-19T08:28:05;15.70;99.90
55083;DHT22;40978;52.850;6.506;2023-09-19T08:30:34;15.90;99.90
55083;DHT22;40978;52.850;6.506;2023-09-19T08:33:00;16.20;99.90
55083;DHT22;40978;52.850;6.506;2023-09-19T08:35:27;16.30;99.90
55083;DHT22;40978;52.850;6.506;2023-09-19T08:37:52;16.50;99.90
55083;DHT22;40978;52.850;6.506;2023-09-19T08:40:18;16.80;99.90
55083;DHT22;40978;52.850;6.506;2023-09-19T08:42:55;17.10;99.90
55083;DHT22;40978;52.850;6.506;2023-09-19T08:45:25;17.10;99.90
55083;DHT22;40978;52.850;6.506;2023-09-19T08:48:27;17.20;99.90
55083;DHT22;40978;52.850;6.506;2023-09-19T08:50:57;17.40;99.90
55083;DHT22;40978;52.850;6.506;2023-09-19T08:56:29;18.10;99.90
55083;DHT22;40978;52.850;6.506;2023-09-19T08:59:03;18.30;99.90
55083;DHT22;40978;52.850;6.506;2023-09-19T09:01:31;18.50;99.90
55083;DHT22;40978;52.850;6.506;2023-09-19T09:03:58;18.60;99.90
55083;DHT22;40978;52.850;6.506;2023-09-19T09:06:25;18.80;99.90
55083;DHT22;40978;52.850;6.506;2023-09-19T09:08:52;19.00;99.90
55083;DHT22;40978;52.850;6.506;2023-09-19T09:11:19;19.20;99.90
55083;DHT22;40978;52.850;6.506;2023-09-19T09:13:45;19.40;99.90
55083;DHT22;40978;52.850;6.506;2023-09-19T09:16:11;19.70;99.90
55083;DHT22;40978;52.850;6.506;2023-09-19T09:18:39;20.00;99.90
55083;DHT22;40978;52.850;6.506;2023-09-19T09:21:05;20.30;99.90
55083;DHT22;40978;52.850;6.506;2023-09-19T09:23:31;20.50;99.90
55083;DHT22;40978;52.850;6.506;2023-09-19T09:25:59;20.60;99.90
55083;DHT22;40978;52.850;6.506;2023-09-19T09:28:30;20.80;99.90
55083;DHT22;40978;52.850;6.506;2023-09-19T09:30:57;20.80;99.90
55083;DHT22;40978;52.850;6.506;2023-09-19T09:33:24;20.90;99.90
55083;DHT22;40978;52.850;6.506;2023-09-19T09:36:00;21.20;99.90
55083;DHT22;40978;52.850;6.506;2023-09-19T09:38:42;21.30;99.90
55083;DHT22;40978;52.850;6.506;2023-09-19T09:41:09;21.40;99.90
55083;DHT22;40978;52.850;6.506;2023-09-19T09:43:37;21.70;99.90
55083;DHT22;40978;52.850;6.506;2023-09-19T09:48:37;21.40;99.90
55083;DHT22;40978;52.850;6.506;2023-09-19T09:51:04;21.30;99.90
55083;DHT22;40978;52.850;6.506;2023-09-19T09:53:33;21.20;99.90
55083;DHT22;40978;52.850;6.506;2023-09-19T09:58:49;21.20;99.90
55083;DHT22;40978;52.850;6.506;2023-09-19T10:01:15;21.40;99.90
55083;DHT22;40978;52.850;6.506;2023-09-19T10:03:42;21.60;99.90
55083;DHT22;40978;52.850;6.506;2023-09-19T10:06:19;21.70;99.90
55083;DHT22;40978;52.850;6.506;2023-09-19T10:09:09;21.70;99.90
55083;DHT22;40978;52.850;6.506;2023-09-19T10:11:37;21.90;99.90
55083;DHT22;40978;52.850;6.506;2023-09-19T10:14:06;22.00;99.90
55083;DHT22;40978;52.850;6.506;2023-09-19T10:16:34;22.10;99.90
55083;DHT22;40978;52.850;6.506;2023-09-19T10:19:06;22.30;99.90
55083;DHT22;40978;52.850;6.506;2023-09-19T10:21:33;22.20;99.90
55083;DHT22;40978;52.850;6.506;2023-09-19T10:24:03;21.90;99.90
55083;DHT22;40978;52.850;6.506;2023-09-19T10:26:34;22.00;99.90
55083;DHT22;40978;52.850;6.506;2023-09-19T10:29:01;21.90;99.90
55083;DHT22;40978;52.850;6.506;2023-09-19T10:31:29;21.70;99.90
55083;DHT22;40978;52.850;6.506;2023-09-19T10:34:02;21.60;99.90
55083;DHT22;40978;52.850;6.506;2023-09-19T10:36:33;21.50;99.90
55083;DHT22;40978;52.850;6.506;2023-09-19T10:39:02;21.40;99.90
55083;DHT22;40978;52.850;6.506;2023-09-19T10:41:32;20.80;99.90
55083;DHT22;40978;52.850;6.506;2023-09-19T10:44:03;20.80;99.90
55083;DHT22;40978;52.850;6.506;2023-09-19T10:46:32;21.20;99.90
55083;DHT22;40978;52.850;6.506;2023-09-19T10:49:01;21.30;99.90
55083;DHT22;40978;52.850;6.506;2023-09-19T10:51:39;21.50;99.90
55083;DHT22;40978;52.850;6.506;2023-09-19T10:54:10;21.70;99.90
55083;DHT22;40978;52.850;6.506;2023-09-19T10:56:48;21.90;99.90
55083;DHT22;40978;52.850;6.506;2023-09-19T10:59:16;21.90;99.90
55083;DHT22;40978;52.850;6.506;2023-09-19T11:07:10;20.90;99.90
55083;DHT22;40978;52.850;6.506;2023-09-19T11:09:52;20.80;99.90
55083;DHT22;40978;52.850;6.506;2023-09-19T11:14:57;20.50;99.90
55083;DHT22;40978;52.850;6.506;2023-09-19T11:30:50;20.50;99.90
55083;DHT22;40978;52.850;6.506;2023-09-19T11:33:28;20.50;99.90
55083;DHT22;40978;52.850;6.506;2023-09-19T11:36:10;20.50;99.90
55083;DHT22;40978;52.850;6.506;2023-09-19T11:43:54;20.50;99.90
55083;DHT22;40978;52.850;6.506;2023-09-19T11:49:31;20.10;99.90
55083;DHT22;40978;52.850;6.506;2023-09-19T11:51:58;20.00;99.90
55083;DHT22;40978;52.850;6.506;2023-09-19T11:54:31;19.90;99.90
55083;DHT22;40978;52.850;6.506;2023-09-19T11:56:58;19.80;99.90
55083;DHT22;40978;52.850;6.506;2023-09-19T11:59:29;19.80;99.90
55083;DHT22;40978;52.850;6.506;2023-09-19T12:02:03;19.70;99.90
55083;DHT22;40978;52.850;6.506;2023-09-19T12:04:43;19.50;99.90
55083;DHT22;40978;52.850;6.506;2023-09-19T12:07:15;19.30;99.90
55083;DHT22;40978;52.850;6.506;2023-09-19T12:10:03;19.40;99.90
55083;DHT22;40978;52.850;6.506;2023-09-19T12:12:30;19.20;99.90
55083;DHT22;40978;52.850;6.506;2023-09-19T12:14:56;19.10;99.90
55083;DHT22;40978;52.850;6.506;2023-09-19T12:17:39;18.90;99.90
55083;DHT22;40978;52.850;6.506;2023-09-19T12:20:07;18.80;99.90
55083;DHT22;40978;52.850;6.506;2023-09-19T12:22:44;18.70;99.90
55083;DHT22;40978;52.850;6.506;2023-09-19T12:25:11;18.60;99.90
55083;DHT22;40978;52.850;6.506;2023-09-19T12:27:48;18.50;99.90
55083;DHT22;40978;52.850;6.506;2023-09-19T12:30:18;18.40;99.90
55083;DHT22;40978;52.850;6.506;2023-09-19T12:32:46;18.30;99.90
55083;DHT22;40978;52.850;6.506;2023-09-19T12:35:30;18.30;99.90
55083;DHT22;40978;52.850;6.506;2023-09-19T12:37:56;18.30;99.90
55083;DHT22;40978;52.850;6.506;2023-09-19T12:40:23;18.30;99.90
55083;DHT22;40978;52.850;6.506;2023-09-19T12:42:56;18.30;99.90
55083;DHT22;40978;52.850;6.506;2023-09-19T12:45:24;18.20;99.90
55083;DHT22;40978;52.850;6.506;2023-09-19T12:48:18;18.30;99.90
55083;DHT22;40978;52.850;6.506;2023-09-19T12:51:09;18.30;99.90
55083;DHT22;40978;52.850;6.506;2023-09-19T12:53:40;18.30;99.90
55083;DHT22;40978;52.850;6.506;2023-09-19T12:56:16;18.30;99.90
55083;DHT22;40978;52.850;6.506;2023-09-19T13:01:23;18.20;99.90
55083;DHT22;40978;52.850;6.506;2023-09-19T13:04:12;18.20;99.90
55083;DHT22;40978;52.850;6.506;2023-09-19T13:06:38;18.20;99.90
55083;DHT22;40978;52.850;6.506;2023-09-19T13:09:12;18.10;99.90
55083;DHT22;40978;52.850;6.506;2023-09-19T13:11:40;18.10;99.90
55083;DHT22;40978;52.850;6.506;2023-09-19T13:16:58;18.00;99.90
55083;DHT22;40978;52.850;6.506;2023-09-19T13:19:48;18.00;99.90
55083;DHT22;40978;52.850;6.506;2023-09-19T13:22:42;18.00;99.90
55083;DHT22;40978;52.850;6.506;2023-09-19T13:25:13;18.00;99.90
55083;DHT22;40978;52.850;6.506;2023-09-19T13:27:45;18.10;99.90
55083;DHT22;40978;52.850;6.506;2023-09-19T13:30:13;18.10;99.90
55083;DHT22;40978;52.850;6.506;2023-09-19T13:32:39;18.10;99.90
55083;DHT22;40978;52.850;6.506;2023-09-19T13:35:07;18.00;99.90
55083;DHT22;40978;52.850;6.506;2023-09-19T13:37:38;18.00;99.90
55083;DHT22;40978;52.850;6.506;2023-09-19T13:40:15;18.10;99.90
55083;DHT22;40978;52.850;6.506;2023-09-19T13:42:42;18.00;99.90
55083;DHT22;40978;52.850;6.506;2023-09-19T13:45:08;18.00;99.90
55083;DHT22;40978;52.850;6.506;2023-09-19T13:47:43;18.00;99.90
55083;DHT22;40978;52.850;6.506;2023-09-19T13:50:09;18.00;99.90
55083;DHT22;40978;52.850;6.506;2023-09-19T13:52:34;18.00;99.90
55083;DHT22;40978;52.850;6.506;2023-09-19T13:55:00;18.00;99.90
55083;DHT22;40978;52.850;6.506;2023-09-19T13:57:26;17.90;99.90
55083;DHT22;40978;52.850;6.506;2023-09-19T13:59:53;18.00;99.90
55083;DHT22;40978;52.850;6.506;2023-09-19T14:02:21;18.00;99.90
55083;DHT22;40978;52.850;6.506;2023-09-19T14:04:51;18.10;99.90
55083;DHT22;40978;52.850;6.506;2023-09-19T14:07:17;18.10;99.90
55083;DHT22;40978;52.850;6.506;2023-09-19T14:09:45;18.20;99.90
55083;DHT22;40978;52.850;6.506;2023-09-19T14:12:11;18.40;99.90
55083;DHT22;40978;52.850;6.506;2023-09-19T14:14:37;18.60;99.90
55083;DHT22;40978;52.850;6.506;2023-09-19T14:17:06;18.70;99.90
55083;DHT22;40978;52.850;6.506;2023-09-19T14:19:33;18.70;99.90
55083;DHT22;40978;52.850;6.506;2023-09-19T14:21:58;18.70;99.90
55083;DHT22;40978;52.850;6.506;2023-09-19T14:24:26;18.60;99.90
55083;DHT22;40978;52.850;6.506;2023-09-19T14:26:51;18.60;99.90
55083;DHT22;40978;52.850;6.506;2023-09-19T14:29:17;18.60;99.90
55083;DHT22;40978;52.850;6.506;2023-09-19T14:31:43;18.50;99.90
55083;DHT22;40978;52.850;6.506;2023-09-19T14:34:09;18.40;99.90
55083;DHT22;40978;52.850;6.506;2023-09-19T14:36:38;18.40;99.90
55083;DHT22;40978;52.850;6.506;2023-09-19T14:39:06;18.40;99.90
55083;DHT22;40978;52.850;6.506;2023-09-19T14:41:33;18.40;99.90
55083;DHT22;40978;52.850;6.506;2023-09-19T14:44:01;18.40;99.90
55083;DHT22;40978;52.850;6.506;2023-09-19T14:46:27;18.30;99.90
55083;DHT22;40978;52.850;6.506;2023-09-19T14:48:53;18.30;99.90
55083;DHT22;40978;52.850;6.506;2023-09-19T14:51:19;18.30;99.90
55083;DHT22;40978;52.850;6.506;2023-09-19T14:53:45;18.20;99.90
55083;DHT22;40978;52.850;6.506;2023-09-19T14:56:12;18.20;99.90
55083;DHT22;40978;52.850;6.506;2023-09-19T14:58:41;18.20;99.90
55083;DHT22;40978;52.850;6.506;2023-09-19T15:01:09;18.20;99.90
55083;DHT22;40978;52.850;6.506;2023-09-19T15:03:39;18.10;99.90
55083;DHT22;40978;52.850;6.506;2023-09-19T15:06:14;18.10;99.90
55083;DHT22;40978;52.850;6.506;2023-09-19T15:08:40;18.20;99.90
55083;DHT22;40978;52.850;6.506;2023-09-19T15:11:11;18.20;99.90
55083;DHT22;40978;52.850;6.506;2023-09-19T15:13:38;18.20;99.90
55083;DHT22;40978;52.850;6.506;2023-09-19T15:16:05;18.20;99.90
55083;DHT22;40978;52.850;6.506;2023-09-19T15:18:35;18.10;99.90
55083;DHT22;40978;52.850;6.506;2023-09-19T15:21:10;18.10;99.90
55083;DHT22;40978;52.850;6.506;2023-09-19T15:23:37;18.10;99.90
55083;DHT22;40978;52.850;6.506;2023-09-19T15:26:08;18.00;99.90
55083;DHT22;40978;52.850;6.506;2023-09-19T15:28:42;18.00;99.90
55083;DHT22;40978;52.850;6.506;2023-09-19T15:31:10;18.10;99.90
55083;DHT22;40978;52.850;6.506;2023-09-19T15:33:37;18.10;99.90
55083;DHT22;40978;52.850;6.506;2023-09-19T15:36:07;18.00;99.90
55083;DHT22;40978;52.850;6.506;2023-09-19T15:39:05;18.00;99.90
55083;DHT22;40978;52.850;6.506;2023-09-19T15:41:34;18.00;99.90
55083;DHT22;40978;52.850;6.506;2023-09-19T15:44:02;18.00;99.90
55083;DHT22;40978;52.850;6.506;2023-09-19T15:46:30;17.90;99.90
55083;DHT22;40978;52.850;6.506;2023-09-19T15:48:57;17.90;99.90
55083;DHT22;40978;52.850;6.506;2023-09-19T15:51:23;17.90;99.90
55083;DHT22;40978;52.850;6.506;2023-09-19T15:53:51;17.90;99.90
55083;DHT22;40978;52.850;6.506;2023-09-19T15:56:17;17.90;99.90
55083;DHT22;40978;52.850;6.506;2023-09-19T15:58:44;17.90;99.90
55083;DHT22;40978;52.850;6.506;2023-09-19T16:01:10;17.90;99.90
55083;DHT22;40978;52.850;6.506;2023-09-19T16:03:37;17.90;99.90
55083;DHT22;40978;52.850;6.506;2023-09-19T16:06:14;18.00;99.90
55083;DHT22;40978;52.850;6.506;2023-09-19T16:08:41;18.00;99.90
55083;DHT22;40978;52.850;6.506;2023-09-19T16:11:08;18.00;99.90
55083;DHT22;40978;52.850;6.506;2023-09-19T16:13:35;17.90;99.90
55083;DHT22;40978;52.850;6.506;2023-09-19T16:16:01;18.00;99.90
55083;DHT22;40978;52.850;6.506;2023-09-19T16:18:27;17.90;99.90
55083;DHT22;40978;52.850;6.506;2023-09-19T16:20:53;17.90;99.90
55083;DHT22;40978;52.850;6.506;2023-09-19T16:23:18;17.80;99.90
55083;DHT22;40978;52.850;6.506;2023-09-19T16:25:46;17.70;99.90
55083;DHT22;40978;52.850;6.506;2023-09-19T16:28:12;17.70;99.90
55083;DHT22;40978;52.850;6.506;2023-09-19T16:30:38;17.50;99.90
55083;DHT22;40978;52.850;6.506;2023-09-19T16:33:05;17.30;99.90
55083;DHT22;40978;52.850;6.506;2023-09-19T16:35:31;17.20;99.90
55083;DHT22;40978;52.850;6.506;2023-09-19T16:38:01;17.10;99.90
55083;DHT22;40978;52.850;6.506;2023-09-19T16:40:27;17.00;99.90
55083;DHT22;40978;52.850;6.506;2023-09-19T16:42:53;16.90;99.90
55083;DHT22;40978;52.850;6.506;2023-09-19T16:45:19;16.80;99.90
55083;DHT22;40978;52.850;6.506;2023-09-19T16:47:45;16.80;99.90